logo
Rechercher aéroport 
image banner adimage banner adimage banner ad
image banner ad

SWTW - Bs Tower

Situé à Fortaleza, Brazil

ICAO - SWTW, IATA -

Données fournies par Airmate  

Information générale

Coordonnées: S3°43'52" W38°30'57"
Élévation : 354 feet MSL.
Variation magnétique : -20.730403656° East
Voir autres Aéroports à Ceará

Données opérationnelles

Special qualification required
Heure actuelle UTC:
Heure actuelle locale:
Météo à : SBFZ - Pinto Martins ( 5 km )
METAR: SBFZ 220900Z 16008KT 9999 SCT020 26/24 Q1013
TAF: TAF SBFZ 220900Z 2212/2312 14010KT 9999 SCT025 TX31/2217Z TN26/2308Z BECMG 2215/2217 11015KT BECMG 2302/2304 17005KT SCT020 BECMG 2310/2312 14010KT SCT025 RMK PHD
Voir NOTAMs / SUP AIP / TFR affectant cet aéroport [VIEW]
Fréquences de communication: [VIEW]

Pistes:

Coordonnées de l'aéroport

Adresse: Fortaleza Brazil

Vue satellite de SWTW